Sea Cloud II — 9HUE6 — position and weather

sailwx.info

Track history (hours):
 
Tides and Currents Weather Stations Pressure Air Temp Water Temp Dewpoint Dewpoint Depression Visibility Wind Speed Wind Dir Waves Ship Positions

Sea Cloud II

Ship's website: http://www.seacloud.com/en/the-ships/sea-cloud-ii.html

Last reported at 2017-Nov-20 00:30 UTC. Time now 2017-Nov-23 14:39 UTC.
Position N 28°09' W 014°59'.

Length 117 m; draft 6 m.

Type: Passenger vessel. MMSI: 248953000.

Date/timePositionNaut miles runAvg speedWind from/ knotsBaromVisibWave heightAir tempDewpointWater temp
2017-Nov-20 00:30N 28°09' W 014°59'510.9
2017-Nov-20 00:00N 28°07' W 014°53'510.9
2017-Nov-19 23:30N 28°06' W 014°48'510.8
2017-Nov-19 23:00N 28°04' W 014°42'611.0
2017-Nov-19 22:29N 28°02' W 014°36'910.8
2017-Nov-19 21:42N 28°01' W 014°26'2 7.3
2017-Nov-19 21:26N 28°01' W 014°24'20 9.6
2017-Nov-19 19:21N 28°03' W 014°01'104 2.5
2017-Nov-18 01:37N 29°15' W 012°36'1 4.0
2017-Nov-18 01:15N 29°16' W 012°35'1 4.2
2017-Nov-18 00:56N 29°17' W 012°33'  
2017-Nov-11 20:23N 35°58' W 005°37'4 9.8
2017-Nov-11 20:00N 35°59' W 005°32'510.0
2017-Nov-11 19:30N 36°01' W 005°27'5 9.4
2017-Nov-11 19:00N 36°03' W 005°21'510.9
2017-Nov-11 18:30N 36°07' W 005°17'611.7
2017-Nov-11 18:00N 36°09' W 005°10'611.8
2017-Nov-11 17:31N 36°13' W 005°04'  
Track history (hours):
 
Tides and Currents Weather Stations Pressure Air Temp Water Temp Dewpoint Dewpoint Depression Visibility Wind Speed Wind Dir Waves Ship Positions

Sea Cloud II

Ship's website: http://www.seacloud.com/en/the-ships/sea-cloud-ii.html

Last reported at 2017-Nov-20 00:30 UTC. Time now 2017-Nov-23 14:39 UTC.
Position N 28°09' W 014°59'.

Length 117 m; draft 6 m.

Type: Passenger vessel. MMSI: 248953000.

Date/timePositionNaut miles runAvg speedWind from/ knotsBaromVisibWave heightAir tempDewpointWater temp
2017-Nov-20 00:30N 28°09' W 014°59'510.9
2017-Nov-20 00:00N 28°07' W 014°53'510.9
2017-Nov-19 23:30N 28°06' W 014°48'510.8
2017-Nov-19 23:00N 28°04' W 014°42'611.0
2017-Nov-19 22:29N 28°02' W 014°36'910.8
2017-Nov-19 21:42N 28°01' W 014°26'2 7.3
2017-Nov-19 21:26N 28°01' W 014°24'20 9.6
2017-Nov-19 19:21N 28°03' W 014°01'104 2.5
2017-Nov-18 01:37N 29°15' W 012°36'1 4.0
2017-Nov-18 01:15N 29°16' W 012°35'1 4.2
2017-Nov-18 00:56N 29°17' W 012°33'  
2017-Nov-11 20:23N 35°58' W 005°37'4 9.8
2017-Nov-11 20:00N 35°59' W 005°32'510.0
2017-Nov-11 19:30N 36°01' W 005°27'5 9.4
2017-Nov-11 19:00N 36°03' W 005°21'510.9
2017-Nov-11 18:30N 36°07' W 005°17'611.7
2017-Nov-11 18:00N 36°09' W 005°10'611.8
2017-Nov-11 17:31N 36°13' W 005°04'  

Dump ship's entire track history